Terminal Aerodrome Forecast
Issued by NWS

Home | Current Version | Previous Version | Graphics & Text | Print | Product List | Glossary On
Versions: 1 2 3 4 5 6 7 8 9 10 11 12 13 14 15 16 17 18 19 20 21 22 23 24 25 26
521
FTUS43 KBIS 281600 AAA
TAFJMS
TAF AMD
KJMS 281600Z 2816/2912 36005KT P6SM FEW014 BKN025
     FM281900 02005KT P6SM BKN040
     FM282100 05007KT P6SM BKN080=

USA.gov is the U.S. government's official web portal to all federal, state and local government web resources and services.